»·PEaware :: N327DK KIPL-KSAN

N327DK :: KIPL-KSAN

FLIGHT INFORMATION

Flight Status: Arrived
Operator: Privately registered:
United States
More flights under this callsign
Pilot: Jeremy H. (10741)
Aircraft: Unknown
(B60T)
More flights by this aircraft type
Origin: KIPL Imperial Co
United States
Destination: KSAN San Diego Intl-Lindbergh
United States
More flights between these airports :: More routes between these airports
Route: +V66 MZB
File this flight plan on PilotEdge
Remarks:
Altitude:
(Current/Filed)
8,000ft
Speed:
(Current/Filed)
205kts
Departed: 26-Apr-16 07:12 PM
Arrived: 26-Apr-16 07:46 PM
Distance/Time
Traveled:
81nm/0:34
Distance/Time
To Go:
Arrived

Flight Plot

Page will automatically refresh every two minutes.

Flight plan parsing failed; only flown route is shown


Map Options




Map Legend


Flown Route
Filed Route
Departure Airport
Arrival Airport
Navaid (VOR, NDB)
Fix

Horizontal Profiles

Position Reports

Time Latitude Longitude Heading Altitude Ground
Speed
26-Apr-16 18:48 32.839962 -115.574842 2 -52ft 0kts
26-Apr-16 18:49 32.839962 -115.574842 2 -52ft 0kts
26-Apr-16 18:50 32.839963 -115.574842 2 -52ft 0kts
26-Apr-16 18:51 32.839963 -115.574842 2 -52ft 0kts
26-Apr-16 18:52 32.839963 -115.574842 2 -52ft 0kts
26-Apr-16 18:53 32.839963 -115.574842 2 -52ft 0kts
26-Apr-16 18:54 32.839505 -115.574841 357 -52ft 2kts
26-Apr-16 18:55 32.839294 -115.574458 127 -52ft 4kts
26-Apr-16 18:56 32.838335 -115.575770 152 -52ft 9kts
26-Apr-16 18:57 32.836168 -115.574433 152 -52ft 11kts
26-Apr-16 18:58 32.833800 -115.574544 246 -52ft 11kts
26-Apr-16 18:59 32.832627 -115.575567 181 -52ft 0kts
26-Apr-16 19:00 32.832627 -115.575567 181 -52ft 0kts
26-Apr-16 19:01 32.832627 -115.575567 181 -52ft 0kts
26-Apr-16 19:02 32.832108 -115.575981 271 -52ft 0kts
26-Apr-16 19:03 32.826051 -115.606733 215 1044ft 164kts
26-Apr-16 19:04 32.824816 -115.587635 332 3410ft 173kts
26-Apr-16 19:05 32.858178 -115.562323 100 5923ft 188kts
26-Apr-16 19:06 32.814551 -115.544346 184 8004ft 207kts
26-Apr-16 19:07 32.758423 -115.555117 217 8009ft 204kts
26-Apr-16 19:08 32.739357 -115.615564 264 8019ft 204kts
26-Apr-16 19:09 32.733352 -115.682872 264 8026ft 204kts
26-Apr-16 19:10 32.727293 -115.750300 264 8029ft 205kts
26-Apr-16 19:11 32.722205 -115.806574 264 8031ft 205kts
26-Apr-16 19:12 32.715053 -115.885211 264 8037ft 205kts
26-Apr-16 19:13 32.710410 -115.941190 272 8039ft 204kts
26-Apr-16 19:14 32.720873 -116.007655 281 8053ft 204kts
26-Apr-16 19:15 32.731913 -116.073890 281 8071ft 203kts
26-Apr-16 19:16 32.742846 -116.139958 281 8090ft 203kts
26-Apr-16 19:17 32.753288 -116.206176 281 8102ft 203kts
26-Apr-16 19:18 32.764388 -116.272257 281 8112ft 203kts
26-Apr-16 19:19 32.767928 -116.339504 271 8118ft 204kts
26-Apr-16 19:20 32.769193 -116.407093 271 8123ft 204kts
26-Apr-16 19:21 32.770457 -116.474920 271 8126ft 205kts
26-Apr-16 19:22 32.771692 -116.542524 271 8135ft 205kts
26-Apr-16 19:23 32.772929 -116.611609 271 8138ft 205kts
26-Apr-16 19:24 32.774112 -116.679724 271 8014ft 207kts
26-Apr-16 19:25 32.775249 -116.747904 271 7972ft 205kts
26-Apr-16 19:26 32.752682 -116.800686 191 7251ft 194kts
26-Apr-16 19:27 32.699535 -116.802057 181 5304ft 182kts
26-Apr-16 19:28 32.675741 -116.834671 271 4995ft 158kts
26-Apr-16 19:29 32.673670 -116.891567 267 4603ft 180kts
26-Apr-16 19:30 32.672765 -116.941138 285 3992ft 131kts
26-Apr-16 19:31 32.682845 -116.981644 284 3607ft 125kts
26-Apr-16 19:32 32.693073 -117.023319 284 2562ft 126kts
26-Apr-16 19:33 32.703695 -117.066783 286 2122ft 139kts
26-Apr-16 19:34 32.711837 -117.104147 279 1453ft 118kts
26-Apr-16 19:35 32.721103 -117.139750 292 639ft 91kts
26-Apr-16 19:36 32.728894 -117.171030 291 240ft 99kts
26-Apr-16 19:37 32.733447 -117.187968 340 18ft 3kts
26-Apr-16 19:38 32.733986 -117.188000 7 18ft 0kts
26-Apr-16 19:39 32.734574 -117.186413 14 18ft 4kts
26-Apr-16 19:40 32.734597 -117.186407 11 18ft 0kts
26-Apr-16 19:41 32.734597 -117.186407 11 18ft 0kts

Navigation Log

Ident Type
Flight plan parsing failed, navigation log unavailable